sensor_id;sensor_type;location;lat;lon;timestamp;pressure;altitude;pressure_sealevel;temperature;humidity
11712;BME280;5912;51.034;6.984;2023-01-31T00:01:19;100473.59;;;0.76;90.82
11712;BME280;5912;51.034;6.984;2023-01-31T00:03:46;100457.59;;;0.63;91.35
11712;BME280;5912;51.034;6.984;2023-01-31T00:08:49;100492.34;;;0.78;90.81
11712;BME280;5912;51.034;6.984;2023-01-31T00:11:16;100476.09;;;0.68;90.75
11712;BME280;5912;51.034;6.984;2023-01-31T00:13:42;100468.03;;;0.71;91.14
11712;BME280;5912;51.034;6.984;2023-01-31T00:16:09;100472.78;;;0.76;90.75
11712;BME280;5912;51.034;6.984;2023-01-31T00:18:35;100488.53;;;0.82;90.44
11712;BME280;5912;51.034;6.984;2023-01-31T00:21:07;100489.34;;;0.83;90.37
11712;BME280;5912;51.034;6.984;2023-01-31T00:23:33;100487.56;;;0.83;90.41
11712;BME280;5912;51.034;6.984;2023-01-31T00:26:17;100485.13;;;0.82;89.70
11712;BME280;5912;51.034;6.984;2023-01-31T00:28:45;100480.25;;;0.79;90.07
11712;BME280;5912;51.034;6.984;2023-01-31T00:31:12;100486.91;;;0.81;90.19
11712;BME280;5912;51.034;6.984;2023-01-31T00:33:39;100474.94;;;0.80;90.42
11712;BME280;5912;51.034;6.984;2023-01-31T00:36:07;100463.81;;;0.70;90.16
11712;BME280;5912;51.034;6.984;2023-01-31T00:38:33;100470.25;;;0.66;90.56
11712;BME280;5912;51.034;6.984;2023-01-31T00:40:58;100487.47;;;0.75;89.69
11712;BME280;5912;51.034;6.984;2023-01-31T00:43:23;100483.41;;;0.73;89.91
11712;BME280;5912;51.034;6.984;2023-01-31T00:45:49;100485.84;;;0.74;89.76
11712;BME280;5912;51.034;6.984;2023-01-31T00:48:14;100478.38;;;0.71;91.00
11712;BME280;5912;51.034;6.984;2023-01-31T00:50:39;100483.41;;;0.73;90.64
11712;BME280;5912;51.034;6.984;2023-01-31T00:53:05;100477.41;;;0.72;89.93
11712;BME280;5912;51.034;6.984;2023-01-31T00:55:31;100468.03;;;0.71;91.10
11712;BME280;5912;51.034;6.984;2023-01-31T00:57:56;100468.59;;;0.65;90.45
11712;BME280;5912;51.034;6.984;2023-01-31T01:00:21;100476.88;;;0.69;90.55
11712;BME280;5912;51.034;6.984;2023-01-31T01:02:47;100466.31;;;0.62;90.41
11712;BME280;5912;51.034;6.984;2023-01-31T01:05:18;100483.19;;;0.66;90.27
11712;BME280;5912;51.034;6.984;2023-01-31T01:07:43;100476.78;;;0.61;91.12
11712;BME280;5912;51.034;6.984;2023-01-31T01:10:15;100481.47;;;0.57;90.32
11712;BME280;5912;51.034;6.984;2023-01-31T01:12:40;100472.63;;;0.50;91.25
11712;BME280;5912;51.034;6.984;2023-01-31T01:15:06;100474.94;;;0.53;91.28
11712;BME280;5912;51.034;6.984;2023-01-31T01:17:31;100435.06;;;0.29;91.15
11712;BME280;5912;51.034;6.984;2023-01-31T01:19:57;100483.38;;;0.55;90.83
11712;BME280;5912;51.034;6.984;2023-01-31T01:22:32;100497.09;;;0.56;91.62
11712;BME280;5912;51.034;6.984;2023-01-31T01:24:57;100482.53;;;0.55;91.88
11712;BME280;5912;51.034;6.984;2023-01-31T01:27:23;100483.06;;;0.58;90.30
11712;BME280;5912;51.034;6.984;2023-01-31T01:29:48;100449.41;;;0.41;90.40
11712;BME280;5912;51.034;6.984;2023-01-31T01:32:13;100481.97;;;0.61;89.87
11712;BME280;5912;51.034;6.984;2023-01-31T01:34:39;100458.50;;;0.45;89.96
11712;BME280;5912;51.034;6.984;2023-01-31T01:37:07;100487.97;;;0.61;89.21
11712;BME280;5912;51.034;6.984;2023-01-31T01:39:46;100489.88;;;0.59;89.49
11712;BME280;5912;51.034;6.984;2023-01-31T01:42:16;100486.34;;;0.60;89.61
11712;BME280;5912;51.034;6.984;2023-01-31T01:44:49;100489.88;;;0.59;89.88
11712;BME280;5912;51.034;6.984;2023-01-31T01:47:34;100482.25;;;0.58;89.97
11712;BME280;5912;51.034;6.984;2023-01-31T01:53:24;100472.06;;;0.56;89.28
11712;BME280;5912;51.034;6.984;2023-01-31T01:55:55;100479.13;;;0.54;89.43
11712;BME280;5912;51.034;6.984;2023-01-31T01:58:35;100469.63;;;0.55;89.14
11712;BME280;5912;51.034;6.984;2023-01-31T02:01:05;100473.16;;;0.54;90.05
11712;BME280;5912;51.034;6.984;2023-01-31T02:03:31;100462.56;;;0.47;90.40
11712;BME280;5912;51.034;6.984;2023-01-31T02:05:59;100462.56;;;0.47;90.20
11712;BME280;5912;51.034;6.984;2023-01-31T02:08:30;100469.94;;;0.42;90.51
11712;BME280;5912;51.034;6.984;2023-01-31T02:11:09;100464.78;;;0.42;90.36
11712;BME280;5912;51.034;6.984;2023-01-31T02:13:39;100470.75;;;0.43;90.49
11712;BME280;5912;51.034;6.984;2023-01-31T02:16:05;100450.41;;;0.30;90.22
11712;BME280;5912;51.034;6.984;2023-01-31T02:18:30;100468.63;;;0.38;90.64
11712;BME280;5912;51.034;6.984;2023-01-31T02:29:49;100445.50;;;0.27;89.80
11712;BME280;5912;51.034;6.984;2023-01-31T02:41:02;100481.56;;;0.29;90.05
11712;BME280;5912;51.034;6.984;2023-01-31T02:44:04;100480.91;;;0.27;90.63
11712;BME280;5912;51.034;6.984;2023-01-31T02:47:02;100477.38;;;0.18;90.21
11712;BME280;5912;51.034;6.984;2023-01-31T02:52:44;100479.81;;;0.20;90.49
11712;BME280;5912;51.034;6.984;2023-01-31T02:55:18;100480.34;;;0.23;90.07
11712;BME280;5912;51.034;6.984;2023-01-31T02:58:07;100477.63;;;0.25;90.04
11712;BME280;5912;51.034;6.984;2023-01-31T03:00:35;100476.50;;;0.27;90.93
11712;BME280;5912;51.034;6.984;2023-01-31T03:03:05;100444.78;;;0.08;90.42
11712;BME280;5912;51.034;6.984;2023-01-31T03:05:32;100474.75;;;0.28;89.95
11712;BME280;5912;51.034;6.984;2023-01-31T03:07:59;100471.63;;;0.24;91.40
11712;BME280;5912;51.034;6.984;2023-01-31T03:10:52;100464.31;;;0.20;90.55
11712;BME280;5912;51.034;6.984;2023-01-31T03:16:19;100460.00;;;0.11;90.65
11712;BME280;5912;51.034;6.984;2023-01-31T03:21:44;100461.00;;;0.00;91.23
11712;BME280;5912;51.034;6.984;2023-01-31T03:24:12;100433.81;;;-0.14;91.28
11712;BME280;5912;51.034;6.984;2023-01-31T03:26:38;100445.88;;;-0.05;90.34
11712;BME280;5912;51.034;6.984;2023-01-31T03:29:04;100447.28;;;-0.10;91.48
11712;BME280;5912;51.034;6.984;2023-01-31T03:32:01;100446.88;;;-0.15;91.74
11712;BME280;5912;51.034;6.984;2023-01-31T03:34:27;100439.25;;;-0.17;91.21
11712;BME280;5912;51.034;6.984;2023-01-31T03:36:55;100436.81;;;-0.18;92.34
11712;BME280;5912;51.034;6.984;2023-01-31T03:39:37;100444.31;;;-0.25;92.16
11712;BME280;5912;51.034;6.984;2023-01-31T03:42:16;100458.84;;;-0.33;91.96
11712;BME280;5912;51.034;6.984;2023-01-31T03:47:33;100447.34;;;-0.58;92.73
11712;BME280;5912;51.034;6.984;2023-01-31T03:50:04;100444.34;;;-0.63;93.56
11712;BME280;5912;51.034;6.984;2023-01-31T03:52:35;100438.78;;;-0.68;93.52
11712;BME280;5912;51.034;6.984;2023-01-31T03:55:07;100437.97;;;-0.68;94.34
11712;BME280;5912;51.034;6.984;2023-01-31T03:57:36;100442.47;;;-0.70;93.96
11712;BME280;5912;51.034;6.984;2023-01-31T04:00:06;100443.25;;;-0.70;95.16
11712;BME280;5912;51.034;6.984;2023-01-31T04:02:34;100438.66;;;-0.76;94.39
11712;BME280;5912;51.034;6.984;2023-01-31T04:05:16;100443.94;;;-0.77;94.62
11712;BME280;5912;51.034;6.984;2023-01-31T04:07:43;100439.47;;;-0.75;95.15
11712;BME280;5912;51.034;6.984;2023-01-31T04:10:13;100434.59;;;-0.78;95.10
11712;BME280;5912;51.034;6.984;2023-01-31T04:12:39;100433.47;;;-0.85;95.15
11712;BME280;5912;51.034;6.984;2023-01-31T04:15:06;100441.63;;;-0.80;95.53
11712;BME280;5912;51.034;6.984;2023-01-31T04:17:31;100426.84;;;-0.88;95.44
11712;BME280;5912;51.034;6.984;2023-01-31T04:19:57;100434.16;;;-0.83;95.90
11712;BME280;5912;51.034;6.984;2023-01-31T04:22:23;100425.47;;;-0.82;95.15
11712;BME280;5912;51.034;6.984;2023-01-31T04:24:48;100400.78;;;-0.94;95.87
11712;BME280;5912;51.034;6.984;2023-01-31T04:27:13;100413.41;;;-0.82;95.97
11712;BME280;5912;51.034;6.984;2023-01-31T04:29:39;100407.69;;;-0.85;96.29
11712;BME280;5912;51.034;6.984;2023-01-31T04:32:05;100397.78;;;-0.99;96.36
11712;BME280;5912;51.034;6.984;2023-01-31T04:34:30;100408.38;;;-0.93;96.50
11712;BME280;5912;51.034;6.984;2023-01-31T04:36:55;100408.09;;;-0.90;96.10
11712;BME280;5912;51.034;6.984;2023-01-31T04:39:21;100410.81;;;-0.91;96.79
11712;BME280;5912;51.034;6.984;2023-01-31T04:41:46;100393.72;;;-1.11;95.81
11712;BME280;5912;51.034;6.984;2023-01-31T04:44:12;100413.94;;;-1.07;96.70
11712;BME280;5912;51.034;6.984;2023-01-31T04:46:37;100414.59;;;-1.05;96.92
11712;BME280;5912;51.034;6.984;2023-01-31T04:49:03;100408.50;;;-1.13;96.33
11712;BME280;5912;51.034;6.984;2023-01-31T04:51:28;100401.44;;;-1.11;97.58
11712;BME280;5912;51.034;6.984;2023-01-31T04:53:53;100389.22;;;-1.19;97.72
11712;BME280;5912;51.034;6.984;2023-01-31T04:56:19;100396.81;;;-1.17;97.40
11712;BME280;5912;51.034;6.984;2023-01-31T04:58:44;100377.69;;;-1.34;98.79
11712;BME280;5912;51.034;6.984;2023-01-31T05:01:09;100396.16;;;-1.19;98.77
11712;BME280;5912;51.034;6.984;2023-01-31T05:03:35;100395.34;;;-1.10;98.82
11712;BME280;5912;51.034;6.984;2023-01-31T05:06:00;100398.19;;;-1.04;98.94
11712;BME280;5912;51.034;6.984;2023-01-31T05:08:25;100399.13;;;-0.95;99.57
11712;BME280;5912;51.034;6.984;2023-01-31T05:10:59;100373.59;;;-1.08;99.53
11712;BME280;5912;51.034;6.984;2023-01-31T05:13:25;100395.63;;;-0.94;99.21
11712;BME280;5912;51.034;6.984;2023-01-31T05:15:50;100388.16;;;-0.97;98.37
11712;BME280;5912;51.034;6.984;2023-01-31T05:18:15;100380.41;;;-1.07;99.35
11712;BME280;5912;51.034;6.984;2023-01-31T05:20:41;100377.16;;;-1.09;98.57
11712;BME280;5912;51.034;6.984;2023-01-31T05:23:08;100378.91;;;-1.09;98.86
11712;BME280;5912;51.034;6.984;2023-01-31T05:25:34;100372.13;;;-1.10;99.21
11712;BME280;5912;51.034;6.984;2023-01-31T05:28:00;100382.44;;;-1.01;99.50
11712;BME280;5912;51.034;6.984;2023-01-31T05:30:25;100377.97;;;-0.99;99.03
11712;BME280;5912;51.034;6.984;2023-01-31T05:32:51;100378.91;;;-0.90;99.39
11712;BME280;5912;51.034;6.984;2023-01-31T05:35:17;100380.81;;;-0.83;99.84
11712;BME280;5912;51.034;6.984;2023-01-31T05:37:42;100379.03;;;-0.73;100.00
11712;BME280;5912;51.034;6.984;2023-01-31T05:40:10;100350.66;;;-0.82;98.96
11712;BME280;5912;51.034;6.984;2023-01-31T05:42:36;100387.31;;;-0.60;98.71
11712;BME280;5912;51.034;6.984;2023-01-31T05:45:02;100382.00;;;-0.58;99.45
11712;BME280;5912;51.034;6.984;2023-01-31T05:47:27;100390.28;;;-0.55;98.73
11712;BME280;5912;51.034;6.984;2023-01-31T05:49:53;100384.31;;;-0.55;98.88
11712;BME280;5912;51.034;6.984;2023-01-31T05:52:18;100387.81;;;-0.47;99.11
11712;BME280;5912;51.034;6.984;2023-01-31T05:54:44;100378.19;;;-0.45;98.13
11712;BME280;5912;51.034;6.984;2023-01-31T05:57:09;100384.69;;;-0.41;97.71
11712;BME280;5912;51.034;6.984;2023-01-31T05:59:34;100379.41;;;-0.49;97.86
11712;BME280;5912;51.034;6.984;2023-01-31T06:02:00;100369.09;;;-0.58;98.68
11712;BME280;5912;51.034;6.984;2023-01-31T06:04:25;100371.13;;;-0.52;98.28
11712;BME280;5912;51.034;6.984;2023-01-31T06:06:50;100353.91;;;-0.61;98.78
11712;BME280;5912;51.034;6.984;2023-01-31T06:09:15;100362.56;;;-0.43;97.44
11712;BME280;5912;51.034;6.984;2023-01-31T06:11:41;100366.06;;;-0.44;98.24
11712;BME280;5912;51.034;6.984;2023-01-31T06:14:07;100369.47;;;-0.44;98.36
11712;BME280;5912;51.034;6.984;2023-01-31T06:16:33;100364.75;;;-0.48;97.42
11712;BME280;5912;51.034;6.984;2023-01-31T06:18:58;100366.91;;;-0.44;97.34
11712;BME280;5912;51.034;6.984;2023-01-31T06:21:23;100368.91;;;-0.38;97.81
11712;BME280;5912;51.034;6.984;2023-01-31T06:23:49;100360.09;;;-0.35;97.97
11712;BME280;5912;51.034;6.984;2023-01-31T06:26:14;100350.84;;;-0.38;97.36
11712;BME280;5912;51.034;6.984;2023-01-31T06:28:39;100358.28;;;-0.25;97.27
11712;BME280;5912;51.034;6.984;2023-01-31T06:31:08;100323.25;;;-0.37;97.30
11712;BME280;5912;51.034;6.984;2023-01-31T06:33:34;100352.38;;;-0.08;97.38
11712;BME280;5912;51.034;6.984;2023-01-31T06:36:00;100344.25;;;-0.13;96.44
11712;BME280;5912;51.034;6.984;2023-01-31T06:38:26;100346.94;;;-0.05;96.89
11712;BME280;5912;51.034;6.984;2023-01-31T06:40:52;100352.84;;;0.05;96.00
11712;BME280;5912;51.034;6.984;2023-01-31T06:43:17;100333.34;;;-0.07;96.06
11712;BME280;5912;51.034;6.984;2023-01-31T06:45:42;100349.47;;;0.05;95.37
11712;BME280;5912;51.034;6.984;2023-01-31T06:48:09;100349.31;;;0.06;96.42
11712;BME280;5912;51.034;6.984;2023-01-31T06:50:34;100357.22;;;0.05;95.25
11712;BME280;5912;51.034;6.984;2023-01-31T06:53:00;100355.06;;;0.00;96.52
11712;BME280;5912;51.034;6.984;2023-01-31T06:55:25;100357.22;;;0.05;95.83
11712;BME280;5912;51.034;6.984;2023-01-31T06:57:51;100371.19;;;0.12;94.89
11712;BME280;5912;51.034;6.984;2023-01-31T07:00:17;100370.09;;;0.14;95.19
11712;BME280;5912;51.034;6.984;2023-01-31T07:02:43;100373.88;;;0.20;94.84
11712;BME280;5912;51.034;6.984;2023-01-31T07:05:09;100347.97;;;0.02;94.62
11712;BME280;5912;51.034;6.984;2023-01-31T07:07:34;100350.66;;;0.10;94.56
11712;BME280;5912;51.034;6.984;2023-01-31T07:09:59;100376.69;;;0.26;93.66
11712;BME280;5912;51.034;6.984;2023-01-31T07:12:25;100372.06;;;0.30;94.42
11712;BME280;5912;51.034;6.984;2023-01-31T07:14:51;100358.50;;;0.18;94.00
11712;BME280;5912;51.034;6.984;2023-01-31T07:17:16;100374.34;;;0.33;93.90
11712;BME280;5912;51.034;6.984;2023-01-31T07:19:42;100363.91;;;0.25;93.44
11712;BME280;5912;51.034;6.984;2023-01-31T07:22:07;100376.94;;;0.33;93.17
11712;BME280;5912;51.034;6.984;2023-01-31T07:24:32;100373.97;;;0.28;93.59
11712;BME280;5912;51.034;6.984;2023-01-31T07:26:58;100376.63;;;0.36;93.60
11712;BME280;5912;51.034;6.984;2023-01-31T07:29:24;100391.06;;;0.38;93.21
11712;BME280;5912;51.034;6.984;2023-01-31T07:31:50;100383.97;;;0.40;93.41
11712;BME280;5912;51.034;6.984;2023-01-31T07:34:15;100380.94;;;0.45;93.17
11712;BME280;5912;51.034;6.984;2023-01-31T07:36:40;100335.50;;;0.25;92.69
11712;BME280;5912;51.034;6.984;2023-01-31T07:39:06;100377.50;;;0.54;92.24
11712;BME280;5912;51.034;6.984;2023-01-31T07:41:31;100367.69;;;0.57;90.88
11712;BME280;5912;51.034;6.984;2023-01-31T07:43:57;100336.34;;;0.43;91.53
11712;BME280;5912;51.034;6.984;2023-01-31T07:46:23;100297.53;;;0.25;90.20
11712;BME280;5912;51.034;6.984;2023-01-31T07:48:48;100361.34;;;0.69;90.16
11712;BME280;5912;51.034;6.984;2023-01-31T07:51:13;100357.78;;;0.70;90.95
11712;BME280;5912;51.034;6.984;2023-01-31T07:53:39;100342.09;;;0.72;89.41
11712;BME280;5912;51.034;6.984;2023-01-31T07:56:13;100349.66;;;0.83;88.95
11712;BME280;5912;51.034;6.984;2023-01-31T07:58:39;100317.66;;;0.66;88.88
11712;BME280;5912;51.034;6.984;2023-01-31T08:01:05;100360.44;;;0.96;87.86
11712;BME280;5912;51.034;6.984;2023-01-31T08:03:50;100360.38;;;1.05;87.90
11712;BME280;5912;51.034;6.984;2023-01-31T08:06:16;100343.97;;;1.14;87.67
11712;BME280;5912;51.034;6.984;2023-01-31T08:08:42;100350.00;;;1.23;87.02
11712;BME280;5912;51.034;6.984;2023-01-31T08:11:08;100330.34;;;1.12;86.48
11712;BME280;5912;51.034;6.984;2023-01-31T08:13:34;100330.19;;;1.14;85.50
11712;BME280;5912;51.034;6.984;2023-01-31T08:16:01;100370.16;;;1.37;84.45
11712;BME280;5912;51.034;6.984;2023-01-31T08:18:27;100365.19;;;1.43;84.00
11712;BME280;5912;51.034;6.984;2023-01-31T08:20:52;100356.31;;;1.46;82.67
11712;BME280;5912;51.034;6.984;2023-01-31T08:23:18;100366.72;;;1.54;82.80
11712;BME280;5912;51.034;6.984;2023-01-31T08:25:44;100352.81;;;1.55;81.61
11712;BME280;5912;51.034;6.984;2023-01-31T08:28:09;100332.50;;;1.42;81.29
11712;BME280;5912;51.034;6.984;2023-01-31T08:30:44;100352.81;;;1.55;81.16
11712;BME280;5912;51.034;6.984;2023-01-31T08:33:10;100341.78;;;1.53;81.61
11712;BME280;5912;51.034;6.984;2023-01-31T08:35:36;100332.91;;;1.56;81.86
11712;BME280;5912;51.034;6.984;2023-01-31T08:38:02;100345.59;;;1.67;81.16
11712;BME280;5912;51.034;6.984;2023-01-31T08:40:27;100272.53;;;1.29;81.32
11712;BME280;5912;51.034;6.984;2023-01-31T08:42:55;100336.91;;;1.76;80.70
11712;BME280;5912;51.034;6.984;2023-01-31T08:45:20;100327.50;;;1.75;80.36
11712;BME280;5912;51.034;6.984;2023-01-31T08:47:46;100327.72;;;1.81;80.71
11712;BME280;5912;51.034;6.984;2023-01-31T08:50:11;100317.00;;;1.76;79.88
11712;BME280;5912;51.034;6.984;2023-01-31T08:52:36;100332.06;;;1.81;79.64
11712;BME280;5912;51.034;6.984;2023-01-31T08:55:02;100315.72;;;1.80;80.00
11712;BME280;5912;51.034;6.984;2023-01-31T08:57:30;100339.38;;;1.85;79.86
11712;BME280;5912;51.034;6.984;2023-01-31T08:59:55;100329.69;;;1.87;80.40
11712;BME280;5912;51.034;6.984;2023-01-31T09:02:21;100331.97;;;1.90;80.31
11712;BME280;5912;51.034;6.984;2023-01-31T09:04:46;100332.47;;;1.94;80.16
11712;BME280;5912;51.034;6.984;2023-01-31T09:07:11;100321.13;;;1.95;79.94
11712;BME280;5912;51.034;6.984;2023-01-31T09:09:36;100326.66;;;2.00;80.28
11712;BME280;5912;51.034;6.984;2023-01-31T09:12:02;100313.03;;;1.98;80.00
11712;BME280;5912;51.034;6.984;2023-01-31T09:14:28;100318.56;;;2.03;81.07
11712;BME280;5912;51.034;6.984;2023-01-31T09:16:55;100313.22;;;2.04;80.49
11712;BME280;5912;51.034;6.984;2023-01-31T09:19:20;100310.78;;;2.03;81.48
11712;BME280;5912;51.034;6.984;2023-01-31T09:21:47;100281.91;;;1.90;81.82
11712;BME280;5912;51.034;6.984;2023-01-31T09:24:13;100307.38;;;2.02;82.79
11712;BME280;5912;51.034;6.984;2023-01-31T09:26:50;100301.56;;;2.00;84.19
11712;BME280;5912;51.034;6.984;2023-01-31T09:29:18;100288.75;;;1.99;84.77
11712;BME280;5912;51.034;6.984;2023-01-31T09:31:43;100272.03;;;1.93;85.16
11712;BME280;5912;51.034;6.984;2023-01-31T09:34:08;100300.75;;;2.08;85.51
11712;BME280;5912;51.034;6.984;2023-01-31T09:36:34;100295.94;;;2.13;85.87
11712;BME280;5912;51.034;6.984;2023-01-31T09:38:59;100297.72;;;2.20;85.82
11712;BME280;5912;51.034;6.984;2023-01-31T09:44:16;100278.56;;;2.13;86.83
11712;BME280;5912;51.034;6.984;2023-01-31T09:46:50;100284.28;;;2.25;87.30
11712;BME280;5912;51.034;6.984;2023-01-31T09:49:49;100287.69;;;2.25;87.95
11712;BME280;5912;51.034;6.984;2023-01-31T09:52:15;100285.59;;;2.21;87.47
11712;BME280;5912;51.034;6.984;2023-01-31T09:54:41;100276.00;;;2.21;87.84
11712;BME280;5912;51.034;6.984;2023-01-31T09:57:41;100275.06;;;2.30;87.97
11712;BME280;5912;51.034;6.984;2023-01-31T10:00:28;100268.25;;;2.29;87.42
11712;BME280;5912;51.034;6.984;2023-01-31T10:11:17;100262.31;;;2.53;87.16
11712;BME280;5912;51.034;6.984;2023-01-31T10:13:52;100266.53;;;2.62;86.37
11712;BME280;5912;51.034;6.984;2023-01-31T10:16:34;100260.50;;;2.61;86.02
11712;BME280;5912;51.034;6.984;2023-01-31T10:19:08;100255.97;;;2.63;86.11
11712;BME280;5912;51.034;6.984;2023-01-31T10:21:52;100244.59;;;2.48;84.85
11712;BME280;5912;51.034;6.984;2023-01-31T10:27:11;100231.66;;;2.64;85.16
11712;BME280;5912;51.034;6.984;2023-01-31T10:29:43;100251.59;;;2.88;84.27
11712;BME280;5912;51.034;6.984;2023-01-31T10:32:29;100225.97;;;2.85;83.74
11712;BME280;5912;51.034;6.984;2023-01-31T10:40:43;100236.00;;;3.04;84.39
11712;BME280;5912;51.034;6.984;2023-01-31T10:43:14;100222.69;;;3.07;83.97
11712;BME280;5912;51.034;6.984;2023-01-31T10:45:41;100221.25;;;3.04;84.21
11712;BME280;5912;51.034;6.984;2023-01-31T10:48:13;100208.25;;;3.04;83.68
11712;BME280;5912;51.034;6.984;2023-01-31T10:56:15;100201.50;;;3.34;83.14
11712;BME280;5912;51.034;6.984;2023-01-31T10:58:42;100196.97;;;3.36;82.13
11712;BME280;5912;51.034;6.984;2023-01-31T11:01:08;100183.97;;;3.36;81.37
11712;BME280;5912;51.034;6.984;2023-01-31T11:03:36;100169.22;;;3.37;81.48
11712;BME280;5912;51.034;6.984;2023-01-31T11:06:02;100167.09;;;3.40;80.67
11712;BME280;5912;51.034;6.984;2023-01-31T11:08:42;100189.59;;;3.56;79.63
11712;BME280;5912;51.034;6.984;2023-01-31T11:11:10;100177.69;;;3.61;79.46
11712;BME280;5912;51.034;6.984;2023-01-31T11:13:37;100183.22;;;3.66;78.66
11712;BME280;5912;51.034;6.984;2023-01-31T11:16:06;100170.34;;;3.73;79.41
11712;BME280;5912;51.034;6.984;2023-01-31T11:18:42;100165.34;;;3.63;78.89
11712;BME280;5912;51.034;6.984;2023-01-31T11:21:09;100152.31;;;3.71;79.27
11712;BME280;5912;51.034;6.984;2023-01-31T11:23:35;100156.97;;;3.84;79.59
11712;BME280;5912;51.034;6.984;2023-01-31T11:26:02;100113.47;;;3.78;79.67
11712;BME280;5912;51.034;6.984;2023-01-31T11:29:05;100148.19;;;4.07;76.14
11712;BME280;5912;51.034;6.984;2023-01-31T11:31:38;100115.84;;;3.87;76.72
11712;BME280;5912;51.034;6.984;2023-01-31T11:34:19;100141.38;;;4.06;77.38
11712;BME280;5912;51.034;6.984;2023-01-31T11:36:45;100143.34;;;4.04;76.55
11712;BME280;5912;51.034;6.984;2023-01-31T11:39:25;100149.41;;;3.97;76.53
11712;BME280;5912;51.034;6.984;2023-01-31T11:41:51;100134.72;;;3.81;77.84
11712;BME280;5912;51.034;6.984;2023-01-31T11:44:19;100148.81;;;3.87;77.53
11712;BME280;5912;51.034;6.984;2023-01-31T11:47:01;100137.31;;;3.81;78.33
11712;BME280;5912;51.034;6.984;2023-01-31T11:49:32;100130.84;;;3.77;78.90
11712;BME280;5912;51.034;6.984;2023-01-31T11:52:11;100129.41;;;3.75;79.10
11712;BME280;5912;51.034;6.984;2023-01-31T11:54:40;100127.16;;;3.72;79.47
11712;BME280;5912;51.034;6.984;2023-01-31T11:57:16;100126.97;;;3.73;80.06
11712;BME280;5912;51.034;6.984;2023-01-31T11:59:42;100118.53;;;3.71;79.31
11712;BME280;5912;51.034;6.984;2023-01-31T12:02:36;100117.72;;;3.71;79.62
11712;BME280;5912;51.034;6.984;2023-01-31T12:05:13;100115.38;;;3.53;79.58
11712;BME280;5912;51.034;6.984;2023-01-31T12:12:58;100102.91;;;3.49;80.91
11712;BME280;5912;51.034;6.984;2023-01-31T12:15:25;100089.97;;;3.41;81.53
11712;BME280;5912;51.034;6.984;2023-01-31T12:17:52;100105.50;;;3.49;81.78
11712;BME280;5912;51.034;6.984;2023-01-31T12:29:12;100097.59;;;3.42;82.63
11712;BME280;5912;51.034;6.984;2023-01-31T12:37:14;100092.34;;;3.50;83.52
11712;BME280;5912;51.034;6.984;2023-01-31T12:40:07;100080.00;;;3.52;84.01
11712;BME280;5912;51.034;6.984;2023-01-31T12:42:55;100081.34;;;3.71;83.82
11712;BME280;5912;51.034;6.984;2023-01-31T12:48:30;100071.34;;;3.82;82.46
11712;BME280;5912;51.034;6.984;2023-01-31T12:52:02;100079.56;;;3.71;83.45
11712;BME280;5912;51.034;6.984;2023-01-31T12:53:59;100078.00;;;3.62;84.07
11712;BME280;5912;51.034;6.984;2023-01-31T13:06:52;100078.59;;;3.42;86.75
11712;BME280;5912;51.034;6.984;2023-01-31T13:09:25;100068.41;;;3.40;86.99
11712;BME280;5912;51.034;6.984;2023-01-31T13:12:06;100071.94;;;3.39;86.75
11712;BME280;5912;51.034;6.984;2023-01-31T13:14:47;100068.09;;;3.35;87.43
11712;BME280;5912;51.034;6.984;2023-01-31T13:17:17;100065.50;;;3.35;87.28
11712;BME280;5912;51.034;6.984;2023-01-31T13:19:50;100073.75;;;3.39;87.34
11712;BME280;5912;51.034;6.984;2023-01-31T13:24:45;100053.97;;;3.30;88.05
11712;BME280;5912;51.034;6.984;2023-01-31T13:27:23;100054.84;;;3.22;87.87
11712;BME280;5912;51.034;6.984;2023-01-31T13:30:04;100046.75;;;3.17;88.09
11712;BME280;5912;51.034;6.984;2023-01-31T13:32:36;100073.31;;;3.27;88.24
11712;BME280;5912;51.034;6.984;2023-01-31T13:35:17;100069.09;;;3.26;88.80
11712;BME280;5912;51.034;6.984;2023-01-31T13:37:47;100061.94;;;3.28;89.14
11712;BME280;5912;51.034;6.984;2023-01-31T13:40:23;100055.31;;;3.26;89.12
11712;BME280;5912;51.034;6.984;2023-01-31T13:42:50;100058.38;;;3.29;89.17
11712;BME280;5912;51.034;6.984;2023-01-31T13:45:39;100061.00;;;3.29;89.51
11712;BME280;5912;51.034;6.984;2023-01-31T13:48:20;100067.13;;;3.28;89.99
11712;BME280;5912;51.034;6.984;2023-01-31T13:50:53;100070.38;;;3.30;90.33
11712;BME280;5912;51.034;6.984;2023-01-31T13:53:24;100026.38;;;3.06;91.12
11712;BME280;5912;51.034;6.984;2023-01-31T13:55:51;100047.06;;;3.22;92.88
11712;BME280;5912;51.034;6.984;2023-01-31T14:00:48;100060.81;;;3.31;94.53
11712;BME280;5912;51.034;6.984;2023-01-31T14:03:17;100023.13;;;3.04;94.85
11712;BME280;5912;51.034;6.984;2023-01-31T14:08:30;100043.03;;;3.20;96.72
11712;BME280;5912;51.034;6.984;2023-01-31T14:11:01;100045.16;;;3.16;97.10
11712;BME280;5912;51.034;6.984;2023-01-31T14:15:56;100060.25;;;3.13;97.71
11712;BME280;5912;51.034;6.984;2023-01-31T14:18:42;100065.94;;;3.08;98.68
11712;BME280;5912;51.034;6.984;2023-01-31T14:24:01;100059.00;;;3.00;99.95
11712;BME280;5912;51.034;6.984;2023-01-31T14:26:34;100058.38;;;2.98;99.36
11712;BME280;5912;51.034;6.984;2023-01-31T14:29:17;100043.31;;;2.94;99.58
11712;BME280;5912;51.034;6.984;2023-01-31T14:31:44;100044.09;;;2.94;100.00
11712;BME280;5912;51.034;6.984;2023-01-31T14:34:19;100036.97;;;2.96;100.00
11712;BME280;5912;51.034;6.984;2023-01-31T14:42:33;100035.56;;;2.86;100.00
11712;BME280;5912;51.034;6.984;2023-01-31T14:53:37;100028.75;;;2.77;100.00
11712;BME280;5912;51.034;6.984;2023-01-31T14:58:48;100013.03;;;2.70;100.00
11712;BME280;5912;51.034;6.984;2023-01-31T15:01:17;100031.34;;;2.77;100.00
11712;BME280;5912;51.034;6.984;2023-01-31T15:03:52;100015.84;;;2.61;100.00
11712;BME280;5912;51.034;6.984;2023-01-31T15:06:22;100043.72;;;2.75;100.00
11712;BME280;5912;51.034;6.984;2023-01-31T15:08:50;100027.50;;;2.73;100.00
11712;BME280;5912;51.034;6.984;2023-01-31T15:11:40;100027.84;;;2.62;100.00
11712;BME280;5912;51.034;6.984;2023-01-31T15:17:00;100035.28;;;2.65;100.00
11712;BME280;5912;51.034;6.984;2023-01-31T15:19:30;100042.75;;;2.68;100.00
11712;BME280;5912;51.034;6.984;2023-01-31T15:22:03;100041.13;;;2.67;100.00
11712;BME280;5912;51.034;6.984;2023-01-31T15:24:34;100044.69;;;2.66;100.00
11712;BME280;5912;51.034;6.984;2023-01-31T15:27:01;100044.72;;;2.58;100.00